Time;durP1;ratioP1;P1;durP2;ratioP2;P2;SDS_P1;SDS_P2;PMS_P1;PMS_P2;Temp;Humidity;BMP_temperature;BMP_pressure;BME280_temperature;BME280_humidity;BME280_pressure;Samples;Min_cycle;Max_cycle;Signal;HPM_P1;HPM_P2
2023/09/23 00:03:52;;;;;;;0.50;0.50;;;;;;;;;;10380170;22;20019;-71
2023/09/23 00:07:53;;;;;;;1.93;0.53;;;;;;;;;;10378778;22;20073;-71
2023/09/23 00:11:53;;;;;;;0.75;0.50;;;;;;;;;;10375891;22;20229;-71
2023/09/23 00:15:55;;;;;;;1.67;0.70;;;;;;;;;;10378297;22;20022;-71
2023/09/23 00:19:56;;;;;;;1.48;0.68;;;;;;;;;;10380855;22;20009;-71
2023/09/23 00:23:57;;;;;;;1.77;0.68;;;;;;;;;;10379498;22;20077;-71
2023/09/23 00:27:58;;;;;;;0.52;0.52;;;;;;;;;;10382767;22;20424;-71
2023/09/23 00:31:58;;;;;;;0.50;0.50;;;;;;;;;;10375632;22;20011;-71
2023/09/23 00:35:58;;;;;;;2.92;0.82;;;;;;;;;;10377590;22;20044;-71
2023/09/23 00:39:59;;;;;;;1.58;0.70;;;;;;;;;;10375378;22;20009;-71
2023/09/23 00:44:04;;;;;;;1.63;0.70;;;;;;;;;;10379253;22;20106;-71
2023/09/23 00:48:08;;;;;;;1.70;0.93;;;;;;;;;;10375092;22;20015;-70
2023/09/23 00:52:08;;;;;;;1.70;0.60;;;;;;;;;;10381199;22;19999;-71
2023/09/23 00:56:09;;;;;;;1.10;0.80;;;;;;;;;;10381518;22;20743;-71
2023/09/23 01:00:23;;;;;;;0.93;0.60;;;;;;;;;;10381497;22;19996;-70
2023/09/23 01:04:24;;;;;;;2.22;0.95;;;;;;;;;;10384497;22;20003;-70
2023/09/23 01:08:25;;;;;;;1.58;1.00;;;;;;;;;;10381288;22;20077;-70
2023/09/23 01:12:25;;;;;;;1.52;0.80;;;;;;;;;;10380141;22;20011;-70
2023/09/23 01:16:25;;;;;;;1.50;1.00;;;;;;;;;;10381679;22;20411;-70
2023/09/23 01:20:26;;;;;;;3.22;0.80;;;;;;;;;;10379861;22;20014;-70
2023/09/23 01:24:30;;;;;;;1.63;0.80;;;;;;;;;;10382726;22;20014;-70
2023/09/23 01:28:31;;;;;;;;;;;;;;;;;;10381497;22;20007;-70
2023/09/23 01:32:35;;;;;;;1.85;0.80;;;;;;;;;;10378026;22;19962;-70
2023/09/23 01:36:37;;;;;;;1.13;0.77;;;;;;;;;;10382494;22;20090;-70
2023/09/23 01:40:39;;;;;;;3.05;0.90;;;;;;;;;;10381994;22;20715;-70
2023/09/23 01:44:40;;;;;;;2.75;0.90;;;;;;;;;;10386681;22;20657;-70
2023/09/23 01:48:40;;;;;;;1.27;0.90;;;;;;;;;;10363637;22;20460;-70
2023/09/23 01:52:41;;;;;;;1.10;0.90;;;;;;;;;;10385793;22;20000;-70
2023/09/23 01:56:41;;;;;;;1.17;0.80;;;;;;;;;;10384427;22;19999;-70
2023/09/23 02:00:41;;;;;;;1.77;0.93;;;;;;;;;;10382483;22;20038;-70
2023/09/23 02:04:42;;;;;;;2.53;0.77;;;;;;;;;;10385837;22;19999;-70
2023/09/23 02:08:42;;;;;;;1.27;0.82;;;;;;;;;;10383495;22;20011;-70
2023/09/23 02:12:42;;;;;;;1.15;0.80;;;;;;;;;;10382148;22;19999;-70
2023/09/23 02:16:42;;;;;;;1.00;0.70;;;;;;;;;;10382997;22;21017;-70
2023/09/23 02:20:44;;;;;;;1.15;0.90;;;;;;;;;;10385055;22;20217;-70
2023/09/23 02:24:44;;;;;;;4.03;1.10;;;;;;;;;;10384771;22;20026;-70
2023/09/23 02:28:47;;;;;;;2.67;1.00;;;;;;;;;;10385853;22;20034;-70
2023/09/23 02:32:47;;;;;;;2.75;0.95;;;;;;;;;;10382650;22;20011;-70
2023/09/23 02:36:50;;;;;;;2.22;0.93;;;;;;;;;;10383366;22;20033;-70
2023/09/23 02:40:52;;;;;;;2.03;0.93;;;;;;;;;;10386656;22;20006;-70
2023/09/23 02:44:54;;;;;;;2.45;1.00;;;;;;;;;;10383923;22;20118;-70
2023/09/23 02:48:55;;;;;;;1.83;1.00;;;;;;;;;;10384398;22;20015;-71
2023/09/23 02:52:55;;;;;;;1.50;1.00;;;;;;;;;;10382935;22;19999;-70
2023/09/23 02:56:55;;;;;;;1.83;1.20;;;;;;;;;;10386199;22;20025;-70
2023/09/23 03:00:58;;;;;;;1.60;1.30;;;;;;;;;;10382084;22;20003;-70
2023/09/23 03:05:01;;;;;;;2.33;1.08;;;;;;;;;;10384531;22;20015;-70
2023/09/23 03:09:01;;;;;;;2.38;1.15;;;;;;;;;;10383819;22;20538;-70
2023/09/23 03:13:07;;;;;;;1.27;1.15;;;;;;;;;;10384436;22;20007;-70
2023/09/23 03:17:09;;;;;;;1.70;1.00;;;;;;;;;;10381985;22;20023;-70
2023/09/23 03:21:09;;;;;;;2.80;1.45;;;;;;;;;;10382938;22;20018;-70
2023/09/23 03:25:09;;;;;;;4.53;1.33;;;;;;;;;;10385257;22;20015;-70
2023/09/23 03:29:11;;;;;;;1.50;1.33;;;;;;;;;;10385615;22;19999;-70
2023/09/23 03:33:12;;;;;;;3.42;1.55;;;;;;;;;;10381901;22;20851;-70
2023/09/23 03:37:12;;;;;;;2.15;1.52;;;;;;;;;;10384899;22;20381;-69
2023/09/23 03:41:13;;;;;;;2.55;1.80;;;;;;;;;;10382291;22;20034;-70
2023/09/23 03:45:15;;;;;;;2.65;1.80;;;;;;;;;;10383584;22;20072;-70
2023/09/23 03:49:15;;;;;;;3.42;1.75;;;;;;;;;;10381837;22;19995;-70
2023/09/23 03:53:15;;;;;;;1.90;1.60;;;;;;;;;;10381731;22;20015;-69
2023/09/23 03:57:15;;;;;;;2.20;2.00;;;;;;;;;;10384232;22;20003;-69
2023/09/23 04:01:15;;;;;;;4.35;2.03;;;;;;;;;;10381314;22;20019;-69
2023/09/23 04:05:16;;;;;;;4.70;2.42;;;;;;;;;;10379808;22;20328;-69
2023/09/23 04:09:16;;;;;;;1.88;1.60;;;;;;;;;;10385516;22;19995;-70
2023/09/23 04:13:16;;;;;;;2.55;2.25;;;;;;;;;;10383781;22;20624;-70
2023/09/23 04:17:16;;;;;;;3.17;2.35;;;;;;;;;;10384119;22;20030;-70
2023/09/23 04:21:17;;;;;;;3.47;2.03;;;;;;;;;;10382779;22;20006;-70
2023/09/23 04:25:21;;;;;;;1.70;1.60;;;;;;;;;;10383517;22;20106;-70
2023/09/23 04:29:21;;;;;;;4.32;1.90;;;;;;;;;;10384196;22;20034;-70
2023/09/23 04:33:23;;;;;;;4.07;2.00;;;;;;;;;;10380655;22;20019;-70
2023/09/23 04:37:23;;;;;;;2.45;2.03;;;;;;;;;;10385342;22;20606;-70
2023/09/23 04:41:23;;;;;;;1.60;1.50;;;;;;;;;;10382172;22;20011;-70
2023/09/23 04:45:24;;;;;;;3.10;1.77;;;;;;;;;;10381974;22;20082;-70
2023/09/23 04:49:24;;;;;;;6.43;1.63;;;;;;;;;;10386171;22;20019;-70
2023/09/23 04:53:25;;;;;;;2.75;1.67;;;;;;;;;;10382274;22;20089;-70
2023/09/23 04:57:25;;;;;;;2.23;1.67;;;;;;;;;;10384852;22;20003;-70
2023/09/23 05:01:26;;;;;;;2.88;1.67;;;;;;;;;;10378492;22;20404;-70
2023/09/23 05:05:26;;;;;;;2.85;1.80;;;;;;;;;;10382448;22;20653;-71
2023/09/23 05:09:27;;;;;;;3.03;1.52;;;;;;;;;;10378340;22;20000;-70
2023/09/23 05:13:29;;;;;;;2.83;1.80;;;;;;;;;;10382391;22;20009;-70
2023/09/23 05:17:30;;;;;;;1.67;1.58;;;;;;;;;;10381745;22;20653;-70
2023/09/23 05:21:30;;;;;;;2.15;1.60;;;;;;;;;;10381590;22;19999;-71
2023/09/23 05:25:31;;;;;;;1.73;1.55;;;;;;;;;;10381486;22;20003;-71
2023/09/23 05:29:32;;;;;;;2.03;1.63;;;;;;;;;;10383271;22;19999;-70
2023/09/23 05:33:32;;;;;;;4.20;1.90;;;;;;;;;;10379472;22;20015;-72
2023/09/23 05:37:32;;;;;;;2.95;1.60;;;;;;;;;;10382803;22;20082;-72
2023/09/23 05:41:32;;;;;;;5.07;1.90;;;;;;;;;;10387807;22;20616;-72
2023/09/23 05:45:35;;;;;;;4.32;1.75;;;;;;;;;;10382675;22;20019;-72
2023/09/23 05:49:35;;;;;;;1.83;1.73;;;;;;;;;;10388574;22;20798;-71
2023/09/23 05:53:35;;;;;;;5.13;1.73;;;;;;;;;;10384743;22;19991;-72
2023/09/23 05:57:35;;;;;;;5.87;1.90;;;;;;;;;;10387615;22;20007;-72
2023/09/23 06:01:36;;;;;;;3.28;1.45;;;;;;;;;;10387180;22;20011;-72
2023/09/23 06:05:36;;;;;;;4.68;1.80;;;;;;;;;;10390469;22;20507;-72
2023/09/23 06:09:36;;;;;;;2.08;1.70;;;;;;;;;;10385593;22;20018;-72
2023/09/23 06:13:36;;;;;;;2.85;1.60;;;;;;;;;;10389169;22;20141;-72
2023/09/23 06:17:37;;;;;;;2.80;1.85;;;;;;;;;;10385431;22;20015;-72
2023/09/23 06:21:37;;;;;;;2.40;1.90;;;;;;;;;;10382946;22;20007;-72
2023/09/23 06:25:37;;;;;;;2.10;1.60;;;;;;;;;;10395347;22;20017;-72
2023/09/23 06:29:38;;;;;;;2.83;1.70;;;;;;;;;;10388895;22;20451;-73
2023/09/23 06:33:38;;;;;;;1.38;1.27;;;;;;;;;;10386736;22;20698;-72
2023/09/23 06:37:38;;;;;;;4.13;1.52;;;;;;;;;;10393705;22;20098;-73
2023/09/23 06:41:38;;;;;;;1.98;1.40;;;;;;;;;;10391323;22;20072;-74
2023/09/23 06:45:39;;;;;;;1.75;1.27;;;;;;;;;;10389412;22;20332;-72
2023/09/23 06:49:39;;;;;;;2.40;1.40;;;;;;;;;;10389130;22;20035;-73
2023/09/23 06:53:40;;;;;;;3.73;1.30;;;;;;;;;;10391490;22;20015;-73
2023/09/23 06:57:40;;;;;;;2.28;1.42;;;;;;;;;;10391093;22;21148;-72
2023/09/23 07:01:41;;;;;;;3.08;1.23;;;;;;;;;;10389871;22;20007;-72
2023/09/23 07:05:42;;;;;;;3.28;1.15;;;;;;;;;;10392770;22;20007;-72
2023/09/23 07:09:42;;;;;;;2.33;1.00;;;;;;;;;;10386917;22;20003;-73
2023/09/23 07:13:42;;;;;;;2.88;1.13;;;;;;;;;;10387711;22;20837;-73
2023/09/23 07:17:42;;;;;;;2.43;1.17;;;;;;;;;;10382663;22;20015;-73
2023/09/23 07:21:42;;;;;;;3.00;1.20;;;;;;;;;;10384918;22;20229;-73
2023/09/23 07:25:43;;;;;;;2.03;1.10;;;;;;;;;;10390136;22;20707;-73
2023/09/23 07:29:43;;;;;;;2.73;1.20;;;;;;;;;;10389627;22;20075;-73
2023/09/23 07:33:44;;;;;;;1.38;1.00;;;;;;;;;;10380157;22;20069;-73
2023/09/23 07:37:44;;;;;;;1.42;1.00;;;;;;;;;;10381983;22;20002;-73
2023/09/23 07:41:45;;;;;;;1.60;0.82;;;;;;;;;;10381882;22;20098;-73
2023/09/23 07:45:45;;;;;;;2.30;1.20;;;;;;;;;;10384591;22;20015;-73
2023/09/23 07:49:46;;;;;;;1.67;1.02;;;;;;;;;;10385461;22;20031;-73
2023/09/23 07:53:46;;;;;;;1.70;0.90;;;;;;;;;;10381813;22;19999;-73
2023/09/23 07:57:46;;;;;;;1.45;0.90;;;;;;;;;;10384289;22;20424;-72
2023/09/23 08:01:47;;;;;;;3.03;1.00;;;;;;;;;;10380647;22;20019;-72
2023/09/23 08:05:47;;;;;;;6.80;1.10;;;;;;;;;;10384339;22;20785;-74
2023/09/23 08:09:47;;;;;;;1.90;1.00;;;;;;;;;;10381923;22;20068;-73
2023/09/23 08:13:48;;;;;;;2.17;0.90;;;;;;;;;;10384510;22;20644;-73
2023/09/23 08:17:48;;;;;;;1.90;1.10;;;;;;;;;;10357546;22;20015;-73
2023/09/23 08:21:49;;;;;;;5.30;1.83;;;;;;;;;;10386152;22;20061;-72
2023/09/23 08:25:50;;;;;;;3.50;1.38;;;;;;;;;;10385624;22;20668;-72
2023/09/23 08:29:50;;;;;;;4.45;1.00;;;;;;;;;;10384766;22;20006;-72
2023/09/23 08:33:51;;;;;;;1.13;1.00;;;;;;;;;;10381122;22;20011;-73
2023/09/23 08:37:51;;;;;;;2.28;1.15;;;;;;;;;;10386102;22;20109;-72
2023/09/23 08:41:54;;;;;;;3.47;1.10;;;;;;;;;;10381192;22;20521;-72
2023/09/23 08:45:55;;;;;;;1.83;1.05;;;;;;;;;;10383615;22;20415;-73
2023/09/23 08:49:55;;;;;;;2.72;1.05;;;;;;;;;;10385116;22;20007;-72
2023/09/23 08:53:55;;;;;;;1.27;1.00;;;;;;;;;;10384016;22;20560;-72
2023/09/23 08:58:01;;;;;;;5.47;1.30;;;;;;;;;;10383358;22;20208;-72
2023/09/23 09:02:03;;;;;;;1.63;1.00;;;;;;;;;;10377047;22;20295;-72
2023/09/23 09:06:03;;;;;;;2.97;1.27;;;;;;;;;;10385447;22;20003;-72
2023/09/23 09:10:04;;;;;;;2.10;0.90;;;;;;;;;;10386888;22;20062;-72
2023/09/23 09:14:04;;;;;;;2.92;1.00;;;;;;;;;;10388233;22;20007;-73
2023/09/23 09:18:05;;;;;;;3.25;1.10;;;;;;;;;;10389954;22;20022;-72
2023/09/23 09:22:06;;;;;;;2.80;1.05;;;;;;;;;;10387750;22;20007;-73
2023/09/23 09:26:07;;;;;;;1.83;1.00;;;;;;;;;;10386190;22;20026;-73
2023/09/23 09:30:13;;;;;;;3.97;1.00;;;;;;;;;;10383704;22;19999;-72
2023/09/23 09:34:14;;;;;;;2.28;0.95;;;;;;;;;;10386420;22;20003;-72
2023/09/23 09:38:17;;;;;;;1.75;0.90;;;;;;;;;;10385393;22;20015;-72
2023/09/23 09:42:23;;;;;;;1.63;0.90;;;;;;;;;;10386325;22;20388;-72
2023/09/23 09:46:23;;;;;;;2.05;0.90;;;;;;;;;;10384114;22;20015;-72
2023/09/23 09:50:25;;;;;;;2.43;1.10;;;;;;;;;;10385821;22;19999;-72
2023/09/23 09:54:26;;;;;;;1.42;0.82;;;;;;;;;;10392075;22;20007;-71
2023/09/23 09:58:40;;;;;;;2.30;0.90;;;;;;;;;;10387670;22;20152;-72
2023/09/23 10:02:42;;;;;;;5.10;1.10;;;;;;;;;;10387301;22;20011;-72
2023/09/23 10:06:49;;;;;;;2.15;0.80;;;;;;;;;;10388840;22;20006;-72
2023/09/23 10:10:50;;;;;;;2.15;1.10;;;;;;;;;;10382099;22;20015;-72
2023/09/23 10:14:54;;;;;;;2.42;1.10;;;;;;;;;;10387169;22;19999;-72
2023/09/23 10:18:55;;;;;;;2.55;1.00;;;;;;;;;;10381815;22;20035;-72
2023/09/23 10:22:58;;;;;;;2.47;1.17;;;;;;;;;;10382956;22;20014;-72
2023/09/23 10:27:02;;;;;;;2.58;1.30;;;;;;;;;;10386439;22;20088;-73
2023/09/23 10:31:04;;;;;;;2.33;1.13;;;;;;;;;;10381754;22;20008;-72
2023/09/23 10:35:05;;;;;;;1.25;0.85;;;;;;;;;;10382285;22;20732;-72
2023/09/23 10:39:15;;;;;;;2.60;1.08;;;;;;;;;;10383290;22;19999;-71
2023/09/23 10:43:15;;;;;;;2.42;1.27;;;;;;;;;;10383787;22;20407;-71
2023/09/23 10:47:16;;;;;;;1.33;1.00;;;;;;;;;;10385507;22;20357;-72
2023/09/23 10:51:16;;;;;;;2.38;1.02;;;;;;;;;;10381366;22;20110;-72
2023/09/23 10:55:16;;;;;;;2.08;1.27;;;;;;;;;;10386437;22;20007;-72
2023/09/23 10:59:17;;;;;;;2.22;1.27;;;;;;;;;;10382620;22;20022;-72
2023/09/23 11:03:18;;;;;;;2.40;1.10;;;;;;;;;;10381178;22;20078;-72
2023/09/23 11:07:20;;;;;;;1.65;1.17;;;;;;;;;;10383893;22;20292;-72
2023/09/23 11:11:20;;;;;;;1.95;1.20;;;;;;;;;;10381800;22;20420;-72
2023/09/23 11:15:21;;;;;;;4.20;1.40;;;;;;;;;;10381431;22;20003;-72
2023/09/23 11:19:21;;;;;;;3.90;1.50;;;;;;;;;;10387314;22;20076;-71
2023/09/23 11:23:25;;;;;;;1.33;1.13;;;;;;;;;;10385058;22;20026;-71
2023/09/23 11:27:26;;;;;;;2.50;1.13;;;;;;;;;;10386448;22;20057;-72
2023/09/23 11:31:26;;;;;;;2.95;1.10;;;;;;;;;;10377882;22;20015;-71
2023/09/23 11:35:26;;;;;;;2.35;1.38;;;;;;;;;;10379576;22;20007;-71
2023/09/23 11:39:27;;;;;;;3.63;1.13;;;;;;;;;;10381608;22;20065;-72
2023/09/23 11:43:27;;;;;;;2.95;1.23;;;;;;;;;;10380658;22;20033;-72
2023/09/23 11:47:27;;;;;;;2.08;1.10;;;;;;;;;;10378598;22;20015;-71
2023/09/23 11:51:27;;;;;;;2.25;1.08;;;;;;;;;;10381380;22;19995;-72
2023/09/23 11:55:29;;;;;;;2.30;1.00;;;;;;;;;;10380492;22;20006;-72
2023/09/23 11:59:29;;;;;;;2.13;1.10;;;;;;;;;;10382066;22;20007;-72
2023/09/23 12:03:29;;;;;;;2.35;1.10;;;;;;;;;;10381436;22;20026;-73
2023/09/23 12:07:30;;;;;;;2.55;1.00;;;;;;;;;;10382095;22;20019;-72
2023/09/23 12:11:31;;;;;;;1.88;1.00;;;;;;;;;;10385198;22;20007;-72
2023/09/23 12:15:31;;;;;;;1.70;0.90;;;;;;;;;;10380901;22;20081;-73
2023/09/23 12:19:31;;;;;;;2.30;1.00;;;;;;;;;;10384358;22;20622;-72
2023/09/23 12:23:32;;;;;;;3.60;1.17;;;;;;;;;;10379883;22;20860;-72
2023/09/23 12:27:33;;;;;;;2.27;1.00;;;;;;;;;;10380732;22;19999;-72
2023/09/23 12:31:33;;;;;;;2.28;1.27;;;;;;;;;;10381878;22;20012;-72
2023/09/23 12:35:34;;;;;;;2.97;1.20;;;;;;;;;;10382948;22;20335;-72
2023/09/23 12:39:34;;;;;;;3.20;0.98;;;;;;;;;;10382046;22;20042;-72
2023/09/23 12:43:34;;;;;;;2.75;1.05;;;;;;;;;;10387454;22;20012;-72
2023/09/23 12:47:35;;;;;;;0.80;0.80;;;;;;;;;;10389072;22;20019;-72
2023/09/23 12:51:37;;;;;;;2.83;1.10;;;;;;;;;;10386817;22;20007;-72
2023/09/23 12:55:37;;;;;;;3.20;1.00;;;;;;;;;;10386255;22;20110;-71
2023/09/23 12:59:38;;;;;;;2.47;1.10;;;;;;;;;;10388237;22;20811;-72
2023/09/23 13:03:38;;;;;;;1.95;1.05;;;;;;;;;;10385717;22;20039;-72
2023/09/23 13:07:38;;;;;;;1.40;0.90;;;;;;;;;;10387350;22;20768;-72
2023/09/23 13:11:38;;;;;;;2.53;1.23;;;;;;;;;;10389102;22;20002;-72
2023/09/23 13:15:40;;;;;;;2.17;1.10;;;;;;;;;;10384114;22;20003;-72
2023/09/23 13:19:40;;;;;;;2.42;1.02;;;;;;;;;;10387128;22;21368;-72
2023/09/23 13:23:40;;;;;;;4.53;0.98;;;;;;;;;;10385959;22;20038;-72
2023/09/23 13:27:41;;;;;;;4.93;1.35;;;;;;;;;;10388861;22;19991;-72
2023/09/23 13:31:41;;;;;;;1.73;1.15;;;;;;;;;;10370124;22;21041;-71
2023/09/23 13:35:42;;;;;;;2.65;1.00;;;;;;;;;;10384732;22;19996;-71
2023/09/23 13:39:42;;;;;;;1.52;0.95;;;;;;;;;;10384330;22;20013;-72
2023/09/23 13:43:43;;;;;;;2.03;0.90;;;;;;;;;;10385868;22;20744;-73
2023/09/23 13:47:44;;;;;;;1.43;0.80;;;;;;;;;;10385438;22;20011;-72
2023/09/23 13:51:45;;;;;;;1.33;0.73;;;;;;;;;;10385197;22;20229;-73
2023/09/23 13:55:45;;;;;;;2.87;1.40;;;;;;;;;;10388690;22;20263;-71
2023/09/23 13:59:45;;;;;;;3.17;1.10;;;;;;;;;;10381181;22;20261;-71
2023/09/23 14:03:45;;;;;;;4.77;1.00;;;;;;;;;;10386802;22;20019;-71
2023/09/23 14:07:46;;;;;;;1.97;1.00;;;;;;;;;;10391075;22;20930;-72
2023/09/23 14:11:46;;;;;;;2.53;1.30;;;;;;;;;;10392215;22;20079;-72
2023/09/23 14:15:46;;;;;;;1.13;0.95;;;;;;;;;;10387701;22;20234;-72
2023/09/23 14:19:46;;;;;;;2.13;1.33;;;;;;;;;;10387360;22;20002;-72
2023/09/23 14:23:48;;;;;;;3.00;1.20;;;;;;;;;;10388565;22;20376;-72
2023/09/23 14:27:48;;;;;;;1.00;0.80;;;;;;;;;;10387969;22;19999;-71
2023/09/23 14:31:50;;;;;;;1.38;1.05;;;;;;;;;;10403969;22;20007;-74
2023/09/23 14:35:50;;;;;;;1.80;1.00;;;;;;;;;;10399051;22;20006;-71
2023/09/23 14:39:51;;;;;;;2.00;1.17;;;;;;;;;;10393011;22;20662;-72
2023/09/23 14:43:51;;;;;;;2.38;1.00;;;;;;;;;;10392404;22;20011;-72
2023/09/23 14:47:51;;;;;;;2.08;1.20;;;;;;;;;;10388877;22;20054;-72
2023/09/23 14:51:52;;;;;;;5.25;1.27;;;;;;;;;;10393181;22;20640;-72
2023/09/23 14:55:52;;;;;;;1.73;1.20;;;;;;;;;;10392474;22;20044;-72
2023/09/23 14:59:52;;;;;;;1.87;1.10;;;;;;;;;;10392211;22;20011;-73
2023/09/23 15:03:53;;;;;;;2.20;1.48;;;;;;;;;;10384707;22;20727;-72
2023/09/23 15:07:53;;;;;;;1.95;0.90;;;;;;;;;;10383471;22;20440;-71
2023/09/23 15:11:54;;;;;;;1.70;1.15;;;;;;;;;;10387968;22;20380;-72
2023/09/23 15:15:58;;;;;;;1.87;1.10;;;;;;;;;;10386565;22;20018;-73
2023/09/23 15:19:58;;;;;;;4.70;1.30;;;;;;;;;;10388238;22;20034;-72
2023/09/23 15:23:58;;;;;;;3.70;1.43;;;;;;;;;;10389303;22;20078;-72
2023/09/23 15:27:58;;;;;;;2.63;1.52;;;;;;;;;;10384974;22;20082;-72
2023/09/23 15:31:59;;;;;;;3.47;1.33;;;;;;;;;;10382247;22;20015;-72
2023/09/23 15:35:59;;;;;;;1.63;1.00;;;;;;;;;;10385847;22;20038;-72
2023/09/23 15:40:01;;;;;;;2.90;1.20;;;;;;;;;;10382842;22;20090;-73
2023/09/23 15:44:01;;;;;;;2.05;1.17;;;;;;;;;;10385368;22;20010;-72
2023/09/23 15:48:02;;;;;;;3.13;0.82;;;;;;;;;;10382870;22;20007;-72
2023/09/23 15:52:02;;;;;;;2.72;1.20;;;;;;;;;;10385932;22;20370;-72
2023/09/23 15:56:06;;;;;;;1.13;0.93;;;;;;;;;;10386967;22;20007;-72
2023/09/23 16:00:07;;;;;;;1.40;1.10;;;;;;;;;;10388872;22;20010;-72
2023/09/23 16:04:07;;;;;;;3.85;1.15;;;;;;;;;;10384584;22;20007;-71
2023/09/23 16:08:08;;;;;;;2.00;1.25;;;;;;;;;;10385090;22;20014;-71
2023/09/23 16:12:08;;;;;;;1.73;1.00;;;;;;;;;;10388667;22;20444;-72
2023/09/23 16:16:08;;;;;;;2.10;1.20;;;;;;;;;;10385626;22;20007;-72
2023/09/23 16:20:09;;;;;;;1.17;1.07;;;;;;;;;;10387401;22;20018;-72
2023/09/23 16:24:12;;;;;;;1.83;1.10;;;;;;;;;;10386573;22;20007;-72
2023/09/23 16:28:12;;;;;;;2.58;1.35;;;;;;;;;;10386921;22;20007;-72
2023/09/23 16:32:13;;;;;;;2.63;1.30;;;;;;;;;;10386745;22;20092;-72
2023/09/23 16:36:13;;;;;;;2.20;1.10;;;;;;;;;;10386882;22;20339;-72
2023/09/23 16:40:14;;;;;;;1.83;1.08;;;;;;;;;;10384030;22;20049;-73
2023/09/23 16:44:14;;;;;;;1.57;0.90;;;;;;;;;;10384990;22;20030;-72
2023/09/23 16:48:14;;;;;;;1.52;1.08;;;;;;;;;;10386237;22;20066;-72
2023/09/23 16:52:14;;;;;;;2.05;1.25;;;;;;;;;;10385898;22;19996;-73
2023/09/23 16:56:15;;;;;;;1.88;1.00;;;;;;;;;;10384152;22;20007;-73
2023/09/23 17:00:16;;;;;;;1.20;1.00;;;;;;;;;;10385955;22;19999;-72
2023/09/23 17:04:17;;;;;;;2.35;1.13;;;;;;;;;;10387599;22;20007;-72
2023/09/23 17:08:17;;;;;;;2.10;1.10;;;;;;;;;;10386066;22;20006;-72
2023/09/23 17:12:17;;;;;;;2.60;1.10;;;;;;;;;;10380752;22;20018;-73
2023/09/23 17:16:17;;;;;;;1.52;1.00;;;;;;;;;;10384046;22;20715;-72
2023/09/23 17:20:17;;;;;;;1.02;0.93;;;;;;;;;;10384870;22;20061;-72
2023/09/23 17:24:18;;;;;;;4.38;1.67;;;;;;;;;;10385287;22;20008;-73
2023/09/23 17:28:18;;;;;;;6.50;2.20;;;;;;;;;;10385301;22;20034;-72
2023/09/23 17:32:18;;;;;;;2.17;1.40;;;;;;;;;;10385931;22;20022;-72
2023/09/23 17:36:18;;;;;;;2.58;1.45;;;;;;;;;;10388496;22;19999;-73
2023/09/23 17:40:19;;;;;;;2.17;1.10;;;;;;;;;;10384252;22;20102;-72
2023/09/23 17:44:19;;;;;;;2.70;1.10;;;;;;;;;;10387863;22;20284;-72
2023/09/23 17:48:19;;;;;;;5.27;1.73;;;;;;;;;;10386761;22;20007;-72
2023/09/23 17:52:19;;;;;;;5.93;1.63;;;;;;;;;;10387064;22;20042;-72
2023/09/23 17:56:21;;;;;;;2.83;1.37;;;;;;;;;;10394346;22;20771;-73
2023/09/23 18:00:22;;;;;;;2.85;1.52;;;;;;;;;;10385838;22;20007;-73
2023/09/23 18:04:22;;;;;;;4.27;1.87;;;;;;;;;;10391368;22;20011;-73
2023/09/23 18:08:22;;;;;;;4.90;1.30;;;;;;;;;;10387115;22;20065;-73
2023/09/23 18:12:23;;;;;;;3.45;1.38;;;;;;;;;;10406742;22;20266;-72
2023/09/23 18:16:24;;;;;;;2.78;1.40;;;;;;;;;;10394378;22;20433;-72
2023/09/23 18:20:25;;;;;;;5.90;2.10;;;;;;;;;;10390293;22;20018;-70
2023/09/23 18:24:25;;;;;;;5.10;2.50;;;;;;;;;;10391801;22;20007;-71
2023/09/23 18:28:26;;;;;;;4.15;2.10;;;;;;;;;;10384311;22;20071;-70
2023/09/23 18:32:26;;;;;;;4.07;1.70;;;;;;;;;;10383721;22;20110;-71
2023/09/23 18:36:26;;;;;;;4.07;1.40;;;;;;;;;;10385397;22;20010;-71
2023/09/23 18:40:26;;;;;;;1.88;1.30;;;;;;;;;;10383887;22;20267;-70
2023/09/23 18:44:28;;;;;;;2.57;1.50;;;;;;;;;;10391693;22;20045;-70
2023/09/23 18:48:28;;;;;;;2.65;1.10;;;;;;;;;;10383140;22;20019;-70
2023/09/23 18:52:28;;;;;;;2.47;1.40;;;;;;;;;;10386351;22;20365;-71
2023/09/23 18:56:29;;;;;;;1.90;1.15;;;;;;;;;;10384011;22;20811;-70
2023/09/23 19:00:29;;;;;;;4.57;1.30;;;;;;;;;;10386043;22;20007;-70
2023/09/23 19:04:29;;;;;;;2.90;1.35;;;;;;;;;;10386696;22;20041;-70
2023/09/23 19:08:30;;;;;;;2.25;1.33;;;;;;;;;;10387824;22;20019;-70
2023/09/23 19:12:30;;;;;;;3.00;1.27;;;;;;;;;;10386899;22;20094;-71
2023/09/23 19:16:31;;;;;;;5.05;1.48;;;;;;;;;;10379587;22;20042;-70
2023/09/23 19:20:31;;;;;;;3.65;1.17;;;;;;;;;;10382410;22;20013;-70
2023/09/23 19:24:31;;;;;;;2.07;1.17;;;;;;;;;;10387737;22;20003;-71
2023/09/23 19:28:31;;;;;;;2.15;1.15;;;;;;;;;;10385115;22;19999;-71
2023/09/23 19:32:32;;;;;;;2.35;1.10;;;;;;;;;;10382977;22;20011;-71
2023/09/23 19:36:32;;;;;;;3.53;1.20;;;;;;;;;;10384663;22;20014;-71
2023/09/23 19:40:33;;;;;;;2.60;1.30;;;;;;;;;;10381721;22;20260;-71
2023/09/23 19:44:33;;;;;;;3.15;1.48;;;;;;;;;;10383627;22;20018;-70
2023/09/23 19:48:36;;;;;;;1.73;1.13;;;;;;;;;;10384475;22;20091;-71
2023/09/23 19:52:36;;;;;;;3.78;1.45;;;;;;;;;;10380189;22;20035;-70
2023/09/23 19:56:36;;;;;;;3.60;1.20;;;;;;;;;;10384741;22;19999;-70
2023/09/23 20:00:37;;;;;;;3.97;1.40;;;;;;;;;;10375980;22;20015;-71
2023/09/23 20:04:41;;;;;;;2.58;1.20;;;;;;;;;;10383059;22;20045;-71
2023/09/23 20:08:41;;;;;;;3.55;1.30;;;;;;;;;;10355425;22;20034;-71
2023/09/23 20:12:41;;;;;;;2.40;1.27;;;;;;;;;;10380383;22;20062;-71
2023/09/23 20:16:42;;;;;;;2.30;1.13;;;;;;;;;;10378029;22;20329;-71
2023/09/23 20:20:44;;;;;;;3.17;1.42;;;;;;;;;;10387719;22;20817;-71
2023/09/23 20:24:44;;;;;;;2.50;1.35;;;;;;;;;;10381696;22;20007;-71
2023/09/23 20:28:46;;;;;;;2.38;1.10;;;;;;;;;;10380827;22;20050;-71
2023/09/23 20:32:46;;;;;;;2.55;1.10;;;;;;;;;;10377913;22;20014;-71
2023/09/23 20:36:47;;;;;;;1.50;1.05;;;;;;;;;;10379740;22;20007;-71
2023/09/23 20:40:48;;;;;;;1.98;1.10;;;;;;;;;;10381658;22;20700;-71
2023/09/23 20:44:48;;;;;;;2.80;1.20;;;;;;;;;;10377655;22;20633;-71
2023/09/23 20:48:49;;;;;;;2.00;1.00;;;;;;;;;;10377670;22;20077;-71
2023/09/23 20:52:49;;;;;;;3.55;1.50;;;;;;;;;;10375148;22;20014;-71
2023/09/23 20:56:49;;;;;;;1.85;1.10;;;;;;;;;;10380248;22;20006;-72
2023/09/23 21:00:51;;;;;;;5.30;1.20;;;;;;;;;;10379094;22;20496;-71
2023/09/23 21:04:51;;;;;;;4.07;1.08;;;;;;;;;;10381086;22;20033;-71
2023/09/23 21:08:52;;;;;;;2.10;1.10;;;;;;;;;;10386336;22;20019;-71
2023/09/23 21:12:52;;;;;;;2.88;1.02;;;;;;;;;;10377937;22;20396;-71
2023/09/23 21:16:52;;;;;;;3.67;1.27;;;;;;;;;;10383533;22;20038;-71
2023/09/23 21:20:53;;;;;;;3.83;2.00;;;;;;;;;;10380922;22;20042;-70
2023/09/23 21:24:53;;;;;;;2.92;1.52;;;;;;;;;;10378889;22;20014;-71
2023/09/23 21:28:53;;;;;;;1.27;0.95;;;;;;;;;;10384761;22;20156;-71
2023/09/23 21:32:54;;;;;;;1.77;1.03;;;;;;;;;;10380484;22;20041;-71
2023/09/23 21:36:54;;;;;;;4.45;1.40;;;;;;;;;;10384328;22;20291;-71
2023/09/23 21:40:55;;;;;;;3.50;1.10;;;;;;;;;;10382653;22;20053;-71
2023/09/23 21:44:55;;;;;;;1.73;0.95;;;;;;;;;;10380546;22;20011;-71
2023/09/23 21:48:56;;;;;;;2.05;0.90;;;;;;;;;;10378310;22;20022;-71
2023/09/23 21:52:56;;;;;;;2.40;1.15;;;;;;;;;;10384270;22;20092;-71
2023/09/23 21:56:57;;;;;;;3.72;1.20;;;;;;;;;;10382129;22;20536;-71
2023/09/23 22:00:59;;;;;;;2.20;1.10;;;;;;;;;;10383675;22;20353;-71
2023/09/23 22:04:59;;;;;;;1.98;1.20;;;;;;;;;;10383845;22;20007;-71
2023/09/23 22:08:59;;;;;;;2.08;1.00;;;;;;;;;;10385009;22;20074;-71
2023/09/23 22:13:00;;;;;;;2.72;1.30;;;;;;;;;;10382251;22;20003;-70
2023/09/23 22:17:00;;;;;;;2.22;1.25;;;;;;;;;;10384685;22;20007;-71
2023/09/23 22:21:01;;;;;;;1.33;0.90;;;;;;;;;;10387525;22;20000;-70
2023/09/23 22:25:01;;;;;;;1.33;0.90;;;;;;;;;;10387143;22;20039;-71
2023/09/23 22:29:02;;;;;;;1.10;1.00;;;;;;;;;;10386147;22;20006;-71
2023/09/23 22:33:03;;;;;;;1.52;1.02;;;;;;;;;;10381836;22;20319;-71
2023/09/23 22:37:04;;;;;;;2.40;0.90;;;;;;;;;;10388916;22;20009;-71
2023/09/23 22:41:05;;;;;;;2.08;1.25;;;;;;;;;;10385560;22;20011;-70
2023/09/23 22:45:08;;;;;;;1.77;1.02;;;;;;;;;;10386464;22;20011;-71
2023/09/23 22:49:12;;;;;;;1.70;0.90;;;;;;;;;;10387101;22;20006;-71
2023/09/23 22:53:12;;;;;;;2.42;1.00;;;;;;;;;;10386027;22;20475;-70
2023/09/23 22:57:13;;;;;;;2.42;1.15;;;;;;;;;;10387622;22;20094;-71
2023/09/23 23:01:13;;;;;;;1.38;1.10;;;;;;;;;;10378475;22;20007;-71
2023/09/23 23:05:17;;;;;;;1.80;0.93;;;;;;;;;;10386096;22;20642;-71
2023/09/23 23:09:17;;;;;;;1.13;1.00;;;;;;;;;;10383616;22;20070;-71
2023/09/23 23:13:17;;;;;;;2.03;1.17;;;;;;;;;;10385312;22;20007;-71
2023/09/23 23:17:17;;;;;;;4.00;1.20;;;;;;;;;;10383480;22;20031;-70
2023/09/23 23:21:18;;;;;;;2.23;1.17;;;;;;;;;;10384390;22;20778;-71
2023/09/23 23:25:18;;;;;;;2.78;1.20;;;;;;;;;;10385259;22;20236;-71
2023/09/23 23:29:19;;;;;;;2.13;1.00;;;;;;;;;;10382327;22;20011;-71
2023/09/23 23:33:19;;;;;;;5.32;1.23;;;;;;;;;;10378205;22;20238;-71
2023/09/23 23:37:20;;;;;;;2.10;1.10;;;;;;;;;;10356830;22;20011;-71
2023/09/23 23:41:20;;;;;;;1.23;0.90;;;;;;;;;;10387194;22;20226;-71
2023/09/23 23:45:21;;;;;;;3.15;1.20;;;;;;;;;;10383839;22;20010;-71